ěÝzenÝ letovÚho provozu ╚eskÚ republiky
Letiste: LKCS Aktualizace: 28.03.2023 17:00:39  UTC
 METAR LKCS 28.03. 17:00 ...
METAR LKCS 281700Z AUTO 29008KT 260V320 9999 FEW053/// BKN064/// 04/M06 Q1024=